Time;durP1;ratioP1;P1;durP2;ratioP2;P2;SDS_P1;SDS_P2;PMS_P1;PMS_P2;Temp;Humidity;BMP_temperature;BMP_pressure;BME280_temperature;BME280_humidity;BME280_pressure;Samples;Min_cycle;Max_cycle;Signal;HPM_P1;HPM_P2
2023/06/11 00:00:01;;;;;;;8.55;5.78;;;21.90;99.90;;;;;;5017001;28;20021;-67
2023/06/11 00:02:32;;;;;;;10.85;6.03;;;21.80;99.90;;;;;;5033513;28;20021;-67
2023/06/11 00:05:03;;;;;;;7.00;5.53;;;21.70;99.90;;;;;;5034441;28;20018;-67
2023/06/11 00:07:29;;;;;;;6.60;5.47;;;21.60;99.90;;;;;;5017922;28;20069;-66
2023/06/11 00:09:55;;;;;;;11.80;6.50;;;21.40;99.90;;;;;;5017203;28;20030;-66
2023/06/11 00:12:20;;;;;;;15.20;6.05;;;21.40;99.90;;;;;;5033768;28;20030;-67
2023/06/11 00:14:46;;;;;;;9.40;6.20;;;21.60;99.90;;;;;;5033679;28;20037;-66
2023/06/11 00:17:11;;;;;;;10.00;6.20;;;21.50;99.90;;;;;;5033985;28;20121;-66
2023/06/11 00:19:39;;;;;;;7.18;5.35;;;21.70;99.90;;;;;;5016693;28;20032;-66
2023/06/11 00:22:06;;;;;;;10.07;5.78;;;21.70;99.90;;;;;;5032552;28;20032;-66
2023/06/11 00:24:32;;;;;;;8.77;6.03;;;21.70;99.90;;;;;;5017486;28;20025;-66
2023/06/11 00:27:01;;;;;;;10.07;5.68;;;21.60;99.90;;;;;;5033147;28;20022;-66
2023/06/11 00:29:27;;;;;;;7.82;5.85;;;21.80;99.90;;;;;;5017423;28;20052;-66
2023/06/11 00:31:53;;;;;;;8.10;5.90;;;21.80;99.90;;;;;;5033700;28;20057;-66
2023/06/11 00:34:19;;;;;;;10.60;6.20;;;21.90;99.90;;;;;;5033931;28;20026;-66
2023/06/11 00:36:45;;;;;;;13.32;6.13;;;21.80;99.90;;;;;;5032695;28;20115;-66
2023/06/11 00:39:11;;;;;;;8.82;5.65;;;21.90;99.90;;;;;;5033244;28;20184;-66
2023/06/11 00:41:37;;;;;;;9.88;6.45;;;21.80;99.90;;;;;;5032843;28;20030;-66
2023/06/11 00:44:03;;;;;;;8.55;6.05;;;21.80;99.90;;;;;;5032759;28;20018;-66
2023/06/11 00:46:31;;;;;;;6.95;5.93;;;21.70;99.90;;;;;;5032892;28;20034;-66
2023/06/11 00:48:58;;;;;;;12.07;6.05;;;21.60;99.90;;;;;;5016544;28;20025;-66
2023/06/11 00:51:25;;;;;;;10.32;5.63;;;21.50;99.90;;;;;;5033707;28;20030;-66
2023/06/11 00:53:52;;;;;;;9.57;5.97;;;21.50;99.90;;;;;;5032838;28;20108;-66
2023/06/11 00:56:19;;;;;;;8.80;6.07;;;21.60;99.90;;;;;;5032974;28;20030;-66
2023/06/11 00:58:46;;;;;;;9.25;6.10;;;21.60;99.90;;;;;;5033400;28;20030;-67
2023/06/11 01:01:15;;;;;;;7.03;5.80;;;21.60;99.90;;;;;;5032940;28;20032;-67
2023/06/11 01:03:41;;;;;;;7.88;5.57;;;21.50;99.90;;;;;;5032911;28;20061;-66
2023/06/11 01:06:12;;;;;;;7.43;5.70;;;21.50;99.90;;;;;;5033475;28;20026;-67
2023/06/11 01:08:39;;;;;;;13.98;6.03;;;21.40;99.90;;;;;;5016975;28;20141;-67
2023/06/11 01:11:13;;;;;;;8.25;6.00;;;21.40;99.90;;;;;;5017097;28;20033;-67
2023/06/11 01:13:39;;;;;;;7.10;6.05;;;21.40;99.90;;;;;;5033412;28;20096;-67
2023/06/11 01:16:12;;;;;;;7.78;6.13;;;21.30;99.90;;;;;;5016396;28;20093;-67
2023/06/11 01:18:53;;;;;;;9.20;6.55;;;21.30;99.90;;;;;;5032532;28;20096;-66
2023/06/11 01:21:24;;;;;;;10.15;6.35;;;21.30;99.90;;;;;;5017014;28;20029;-67
2023/06/11 01:24:09;;;;;;;9.63;6.70;;;21.20;99.90;;;;;;5016660;28;20026;-67
2023/06/11 01:26:46;;;;;;;11.23;6.75;;;21.20;99.90;;;;;;5017103;28;20025;-68
2023/06/11 01:29:14;;;;;;;7.45;6.25;;;21.10;99.90;;;;;;5033129;28;20037;-68
2023/06/11 01:31:40;;;;;;;9.68;7.03;;;21.20;99.90;;;;;;5033184;28;20050;-68
2023/06/11 01:34:08;;;;;;;10.45;6.68;;;21.10;99.90;;;;;;5036373;28;20142;-67
2023/06/11 01:36:36;;;;;;;10.82;6.85;;;21.10;99.90;;;;;;5036053;28;20081;-68
2023/06/11 01:39:02;;;;;;;8.32;6.32;;;21.10;99.90;;;;;;5020555;28;20022;-68
2023/06/11 01:41:28;;;;;;;8.63;6.10;;;21.00;99.90;;;;;;5020383;28;20018;-67
2023/06/11 01:43:54;;;;;;;8.35;5.93;;;20.90;99.90;;;;;;5019746;28;20084;-67
2023/06/11 01:46:20;;;;;;;9.38;6.53;;;20.80;99.90;;;;;;5036265;28;20029;-68
2023/06/11 01:48:45;;;;;;;9.80;6.80;;;20.80;99.90;;;;;;5019824;28;20030;-68
2023/06/11 01:51:13;;;;;;;9.10;6.40;;;20.80;99.90;;;;;;5020298;28;20045;-68
2023/06/11 01:53:42;;;;;;;10.02;6.28;;;20.70;99.90;;;;;;5035861;28;20029;-68
2023/06/11 01:56:08;;;;;;;7.00;6.25;;;20.60;99.90;;;;;;5019430;28;20030;-67
2023/06/11 01:58:33;;;;;;;9.13;6.43;;;20.70;99.90;;;;;;5035943;28;20030;-68
2023/06/11 02:00:59;;;;;;;10.07;6.53;;;20.50;99.90;;;;;;5036465;28;20033;-68
2023/06/11 02:03:25;;;;;;;8.82;6.15;;;20.40;99.90;;;;;;5035780;28;20033;-67
2023/06/11 02:05:51;;;;;;;11.13;6.60;;;20.50;99.90;;;;;;5035904;28;20021;-68
2023/06/11 02:08:17;;;;;;;9.88;6.20;;;20.40;99.90;;;;;;5035838;28;20041;-68
2023/06/11 02:10:45;;;;;;;8.23;5.78;;;20.40;99.90;;;;;;5035494;28;20121;-68
2023/06/11 02:13:11;;;;;;;8.48;6.75;;;20.50;99.90;;;;;;5019790;28;20084;-67
2023/06/11 02:15:37;;;;;;;11.23;6.28;;;20.50;99.90;;;;;;5035369;28;20029;-67
2023/06/11 02:18:03;;;;;;;7.70;6.50;;;20.50;99.90;;;;;;5036227;28;20030;-67
2023/06/11 02:20:28;;;;;;;8.52;6.75;;;20.40;99.90;;;;;;5019784;28;20028;-67
2023/06/11 02:22:54;;;;;;;7.03;6.03;;;20.40;99.90;;;;;;5035291;28;20022;-68
2023/06/11 02:25:20;;;;;;;11.38;6.72;;;20.40;99.90;;;;;;5035293;28;20045;-68
2023/06/11 02:27:47;;;;;;;9.88;6.30;;;20.20;99.90;;;;;;5036346;28;20064;-67
2023/06/11 02:30:13;;;;;;;8.05;6.28;;;20.20;99.90;;;;;;5019778;28;20085;-67
2023/06/11 02:32:40;;;;;;;11.00;6.68;;;20.20;99.90;;;;;;5034933;28;20061;-67
2023/06/11 02:35:06;;;;;;;8.40;6.70;;;20.10;99.90;;;;;;5019736;28;20026;-67
2023/06/11 02:37:31;;;;;;;9.35;6.50;;;20.10;99.90;;;;;;5018341;28;20032;-67
2023/06/11 02:39:57;;;;;;;8.02;6.55;;;20.00;99.90;;;;;;5034903;28;20018;-67
2023/06/11 02:42:23;;;;;;;10.98;6.47;;;20.10;99.90;;;;;;5019205;28;20022;-67
2023/06/11 02:44:48;;;;;;;8.75;6.03;;;20.00;99.90;;;;;;5018451;28;20026;-67
2023/06/11 02:47:14;;;;;;;7.93;6.47;;;20.00;99.90;;;;;;5034935;28;20129;-67
2023/06/11 02:49:39;;;;;;;10.35;6.68;;;20.00;99.90;;;;;;5035022;28;20080;-67
2023/06/11 02:52:05;;;;;;;15.70;7.57;;;19.90;99.90;;;;;;5019060;28;20053;-67
2023/06/11 02:54:31;;;;;;;10.80;6.63;;;19.90;99.90;;;;;;5019221;28;20029;-67
2023/06/11 02:56:56;;;;;;;11.52;6.88;;;20.00;99.90;;;;;;5034630;28;20029;-68
2023/06/11 02:59:22;;;;;;;8.88;6.72;;;19.90;99.90;;;;;;5034562;28;20014;-68
2023/06/11 03:01:47;;;;;;;8.73;6.18;;;19.80;99.90;;;;;;5019072;28;20030;-67
2023/06/11 03:04:13;;;;;;;9.52;6.93;;;19.80;99.90;;;;;;5035683;28;20108;-68
2023/06/11 03:06:38;;;;;;;12.27;7.88;;;19.70;99.90;;;;;;5034425;28;20072;-67
2023/06/11 03:09:04;;;;;;;10.00;6.97;;;19.70;99.90;;;;;;5019108;28;20022;-68
2023/06/11 03:11:29;;;;;;;10.60;7.00;;;19.60;99.90;;;;;;5018736;28;20027;-67
2023/06/11 03:13:55;;;;;;;8.10;6.15;;;19.60;99.90;;;;;;5034554;28;20018;-67
2023/06/11 03:16:21;;;;;;;11.20;6.97;;;19.60;99.90;;;;;;5034320;28;20029;-67
2023/06/11 03:18:46;;;;;;;12.13;7.00;;;19.60;99.90;;;;;;5018420;28;20045;-67
2023/06/11 03:21:12;;;;;;;10.45;6.30;;;19.60;99.90;;;;;;5034770;28;20026;-67
2023/06/11 03:23:37;;;;;;;8.55;6.72;;;19.60;99.90;;;;;;5034387;28;20028;-67
2023/06/11 03:26:03;;;;;;;11.48;6.75;;;19.60;99.90;;;;;;5034378;28;20075;-67
2023/06/11 03:28:28;;;;;;;9.65;6.38;;;19.50;99.90;;;;;;5034296;28;20037;-67
2023/06/11 03:30:54;;;;;;;10.95;7.03;;;19.50;99.90;;;;;;5018593;28;20033;-67
2023/06/11 03:33:19;;;;;;;12.25;7.55;;;19.50;99.90;;;;;;5018270;28;20034;-67
2023/06/11 03:35:45;;;;;;;8.50;6.53;;;19.50;99.90;;;;;;5034893;28;20029;-67
2023/06/11 03:38:10;;;;;;;9.85;6.57;;;19.50;99.90;;;;;;5034398;28;20022;-67
2023/06/11 03:40:36;;;;;;;11.60;7.18;;;19.40;99.90;;;;;;5033951;28;20022;-67
2023/06/11 03:43:01;;;;;;;11.55;6.47;;;19.40;99.90;;;;;;5033692;28;20026;-67
2023/06/11 03:45:27;;;;;;;9.50;6.97;;;19.40;99.90;;;;;;5033677;28;20018;-67
2023/06/11 03:47:55;;;;;;;10.32;5.95;;;19.40;99.90;;;;;;5017315;28;20025;-67
2023/06/11 03:50:21;;;;;;;12.65;6.90;;;19.50;99.90;;;;;;5034434;28;20074;-67
2023/06/11 03:52:47;;;;;;;8.20;6.68;;;19.60;99.90;;;;;;5033855;28;20065;-67
2023/06/11 03:55:13;;;;;;;11.90;6.70;;;19.60;99.90;;;;;;5033782;28;20054;-67
2023/06/11 03:57:40;;;;;;;8.73;6.55;;;19.60;99.90;;;;;;5017316;28;20022;-67
2023/06/11 04:00:06;;;;;;;10.02;6.38;;;19.50;99.90;;;;;;5033357;28;20120;-67
2023/06/11 04:02:32;;;;;;;8.10;6.57;;;19.50;99.90;;;;;;5029840;28;20026;-67
2023/06/11 04:04:57;;;;;;;8.32;6.90;;;19.50;99.90;;;;;;4998109;28;20082;-68
2023/06/11 04:07:23;;;;;;;11.48;7.05;;;19.40;99.90;;;;;;4997185;28;20026;-67
2023/06/11 04:09:48;;;;;;;9.98;6.78;;;19.20;99.90;;;;;;5030018;28;20026;-67
2023/06/11 04:12:14;;;;;;;14.77;7.70;;;19.30;99.90;;;;;;4997711;28;20030;-67
2023/06/11 04:14:39;;;;;;;9.45;6.72;;;19.40;99.90;;;;;;5029873;28;20109;-67
2023/06/11 04:17:05;;;;;;;7.68;6.35;;;19.40;99.90;;;;;;4997630;28;20027;-67
2023/06/11 04:19:31;;;;;;;8.23;6.30;;;19.50;99.90;;;;;;4998117;28;20053;-67
2023/06/11 04:21:56;;;;;;;9.30;6.28;;;19.50;99.90;;;;;;5030101;28;20026;-67
2023/06/11 04:24:21;;;;;;;11.85;6.57;;;19.50;99.90;;;;;;4997671;28;20029;-67
2023/06/11 04:26:48;;;;;;;9.63;6.75;;;19.50;99.90;;;;;;4997298;28;20022;-67
2023/06/11 04:29:15;;;;;;;9.63;6.70;;;19.50;99.90;;;;;;4996927;28;20034;-67
2023/06/11 04:31:41;;;;;;;11.90;6.80;;;19.50;99.90;;;;;;4996769;28;20066;-67
2023/06/11 04:34:08;;;;;;;10.88;6.68;;;19.50;99.90;;;;;;4997707;28;20031;-68
2023/06/11 04:36:33;;;;;;;9.25;6.20;;;19.50;99.90;;;;;;4997641;28;20030;-68
2023/06/11 04:39:03;;;;;;;11.75;7.05;;;19.60;99.90;;;;;;4996919;28;20023;-68
2023/06/11 04:41:29;;;;;;;9.32;6.72;;;19.50;99.90;;;;;;4998085;28;20093;-68
2023/06/11 04:43:55;;;;;;;10.00;7.00;;;19.50;99.90;;;;;;4997050;28;20042;-68
2023/06/11 04:46:21;;;;;;;11.23;6.25;;;19.50;99.90;;;;;;4996965;28;20118;-68
2023/06/11 04:48:50;;;;;;;9.23;6.38;;;19.60;99.90;;;;;;4999982;28;20033;-68
2023/06/11 04:51:16;;;;;;;9.45;6.80;;;19.70;99.90;;;;;;5005285;28;20022;-68
2023/06/11 04:53:42;;;;;;;8.18;6.82;;;19.70;99.90;;;;;;5003211;28;20029;-68
2023/06/11 04:56:08;;;;;;;13.18;6.70;;;19.80;99.90;;;;;;5006878;28;20025;-68
2023/06/11 04:58:34;;;;;;;9.40;6.70;;;20.00;99.90;;;;;;5007452;28;20029;-68
2023/06/11 05:00:59;;;;;;;9.82;7.05;;;19.90;99.90;;;;;;5007783;28;20018;-68
2023/06/11 05:03:27;;;;;;;13.27;7.35;;;20.00;99.90;;;;;;5007235;28;20025;-68
2023/06/11 05:05:53;;;;;;;9.90;6.78;;;20.10;99.90;;;;;;5006315;28;20033;-68
2023/06/11 05:08:24;;;;;;;9.70;6.93;;;20.20;99.90;;;;;;5009093;28;20021;-68
2023/06/11 05:10:51;;;;;;;10.02;6.47;;;20.30;99.90;;;;;;5032893;28;20072;-68
2023/06/11 05:13:22;;;;;;;10.48;7.00;;;20.30;99.90;;;;;;5011624;28;20034;-68
2023/06/11 05:15:48;;;;;;;7.82;6.57;;;20.30;99.90;;;;;;5010649;28;20029;-68
2023/06/11 05:18:14;;;;;;;12.15;7.10;;;20.30;99.90;;;;;;5010042;28;20026;-68
2023/06/11 05:20:40;;;;;;;9.07;7.30;;;20.40;99.90;;;;;;5009325;28;20093;-68
2023/06/11 05:23:05;;;;;;;9.70;6.60;;;20.30;99.90;;;;;;5008235;28;20105;-68
2023/06/11 05:25:31;;;;;;;9.00;6.70;;;20.30;99.90;;;;;;5010139;28;20050;-68
2023/06/11 05:28:01;;;;;;;8.80;7.05;;;20.30;99.90;;;;;;5010206;28;20037;-68
2023/06/11 05:30:29;;;;;;;12.63;6.85;;;20.40;99.90;;;;;;5008573;28;20022;-68
2023/06/11 05:32:56;;;;;;;12.32;6.18;;;20.40;99.90;;;;;;5011033;28;20030;-68
2023/06/11 05:35:24;;;;;;;11.95;7.13;;;20.40;99.90;;;;;;5008620;28;20018;-68
2023/06/11 05:37:49;;;;;;;9.30;6.85;;;20.50;99.90;;;;;;5032238;28;20022;-68
2023/06/11 05:40:15;;;;;;;9.75;7.13;;;20.50;99.90;;;;;;5009727;28;20084;-68
2023/06/11 05:42:41;;;;;;;8.95;7.00;;;20.60;99.90;;;;;;5008813;28;20024;-68
2023/06/11 05:45:07;;;;;;;8.18;6.38;;;20.60;99.90;;;;;;5003453;28;20038;-68
2023/06/11 05:47:33;;;;;;;8.02;6.47;;;20.70;99.90;;;;;;4999744;28;20088;-68
2023/06/11 05:49:59;;;;;;;8.35;6.88;;;20.70;99.90;;;;;;5000815;28;20105;-68
2023/06/11 05:52:25;;;;;;;7.80;6.55;;;20.80;99.90;;;;;;4999639;28;20034;-68
2023/06/11 05:54:50;;;;;;;8.65;6.90;;;20.90;99.90;;;;;;4999696;28;20030;-68
2023/06/11 05:57:24;;;;;;;10.88;7.05;;;20.90;99.90;;;;;;4999567;28;20030;-68
2023/06/11 05:59:50;;;;;;;7.63;6.68;;;21.00;99.90;;;;;;5000524;28;20050;-68
2023/06/11 06:02:16;;;;;;;9.65;6.88;;;21.00;99.90;;;;;;5000153;28;20085;-68
2023/06/11 06:04:41;;;;;;;7.88;6.70;;;21.10;99.90;;;;;;4999617;28;20027;-68
2023/06/11 06:07:07;;;;;;;9.63;7.13;;;21.10;99.90;;;;;;4999448;28;20030;-68
2023/06/11 06:09:33;;;;;;;8.50;6.63;;;21.10;99.90;;;;;;5000377;28;20030;-68
2023/06/11 06:11:59;;;;;;;9.10;6.72;;;21.20;99.90;;;;;;5000371;28;20022;-68
2023/06/11 06:14:25;;;;;;;11.10;6.60;;;21.30;99.90;;;;;;4999574;28;20124;-68
2023/06/11 06:16:50;;;;;;;12.43;6.45;;;21.30;99.90;;;;;;4999331;28;20030;-68
2023/06/11 06:19:16;;;;;;;11.05;6.85;;;21.40;99.90;;;;;;4998295;28;20112;-68
2023/06/11 06:21:41;;;;;;;9.95;6.95;;;21.50;99.90;;;;;;4999090;28;20054;-68
2023/06/11 06:24:07;;;;;;;7.00;6.03;;;21.50;99.90;;;;;;4999345;28;20058;-68
2023/06/11 06:26:33;;;;;;;9.13;6.60;;;21.60;99.90;;;;;;4999381;28;20026;-68
2023/06/11 06:28:59;;;;;;;10.68;6.82;;;21.70;99.90;;;;;;5000366;28;20033;-68
2023/06/11 06:31:25;;;;;;;10.05;6.80;;;21.70;99.90;;;;;;4999221;28;20032;-68
2023/06/11 06:33:51;;;;;;;10.80;6.82;;;21.80;99.90;;;;;;4999438;28;20038;-68
2023/06/11 06:36:19;;;;;;;16.27;7.32;;;21.80;99.90;;;;;;4998941;28;20081;-68
2023/06/11 06:38:45;;;;;;;8.38;6.45;;;21.90;99.90;;;;;;4998890;28;20045;-68
2023/06/11 06:41:11;;;;;;;11.95;7.18;;;22.00;99.90;;;;;;4999113;28;20019;-68
2023/06/11 06:43:38;;;;;;;9.02;7.20;;;22.00;99.90;;;;;;4999735;28;20053;-68
2023/06/11 06:46:03;;;;;;;9.70;6.97;;;22.10;99.90;;;;;;4999118;28;20023;-68
2023/06/11 06:48:29;;;;;;;9.15;7.00;;;22.10;99.90;;;;;;4999790;28;20026;-68
2023/06/11 06:50:54;;;;;;;12.88;7.45;;;22.20;99.90;;;;;;4998767;28;20030;-68
2023/06/11 06:53:20;;;;;;;8.55;7.28;;;22.30;99.90;;;;;;4999531;28;20100;-68
2023/06/11 06:55:46;;;;;;;9.65;7.05;;;22.30;99.90;;;;;;4999301;28;20034;-68
2023/06/11 06:58:12;;;;;;;7.07;6.30;;;22.40;99.90;;;;;;4999426;28;20042;-68
2023/06/11 07:00:37;;;;;;;10.40;7.13;;;22.50;99.90;;;;;;4998511;28;20026;-68
2023/06/11 07:03:03;;;;;;;8.35;6.70;;;22.50;99.90;;;;;;4998480;28;20106;-68
2023/06/11 07:05:28;;;;;;;8.57;6.78;;;22.50;99.90;;;;;;4998517;28;20030;-68
2023/06/11 07:07:54;;;;;;;8.98;6.70;;;22.50;99.90;;;;;;4998452;28;20029;-68
2023/06/11 07:10:20;;;;;;;10.80;6.72;;;22.50;99.90;;;;;;4999206;28;20022;-68
2023/06/11 07:12:45;;;;;;;11.55;7.10;;;22.60;99.90;;;;;;4998706;28;20022;-68
2023/06/11 07:15:11;;;;;;;7.30;5.95;;;22.60;99.90;;;;;;4998329;28;20025;-68
2023/06/11 07:17:37;;;;;;;10.15;7.03;;;22.80;99.90;;;;;;4998438;28;20033;-68
2023/06/11 07:20:04;;;;;;;9.68;6.53;;;22.80;99.90;;;;;;4998206;28;20026;-68
2023/06/11 07:22:33;;;;;;;8.48;6.82;;;22.90;99.90;;;;;;4998371;28;20076;-68
2023/06/11 07:25:00;;;;;;;10.57;6.03;;;22.90;99.90;;;;;;5022152;22;20030;-69
2023/06/11 07:27:26;;;;;;;9.63;6.60;;;23.10;99.90;;;;;;5014328;28;20050;-69
2023/06/11 07:29:52;;;;;;;7.75;6.07;;;23.20;99.90;;;;;;5014798;28;20081;-70
2023/06/11 07:32:18;;;;;;;7.25;6.45;;;23.20;99.90;;;;;;5014681;28;20034;-70
2023/06/11 07:34:43;;;;;;;8.77;6.35;;;23.20;99.90;;;;;;4998991;28;20030;-67
2023/06/11 07:37:09;;;;;;;9.95;6.93;;;23.30;99.90;;;;;;4997765;28;20097;-67
2023/06/11 07:39:35;;;;;;;7.63;6.60;;;23.20;99.90;;;;;;4997797;28;20029;-67
2023/06/11 07:42:04;;;;;;;9.32;6.20;;;23.20;99.90;;;;;;4999535;28;20046;-67
2023/06/11 07:44:30;;;;;;;7.82;6.32;;;23.30;99.90;;;;;;4998679;28;20097;-67
2023/06/11 07:46:56;;;;;;;8.73;6.80;;;23.40;99.90;;;;;;4998764;28;20061;-67
2023/06/11 07:49:21;;;;;;;10.82;6.82;;;23.60;99.90;;;;;;4997840;28;20018;-67
2023/06/11 07:51:47;;;;;;;8.35;7.15;;;23.70;99.90;;;;;;4997620;28;20117;-67
2023/06/11 07:54:12;;;;;;;10.25;6.07;;;23.90;99.90;;;;;;4997724;28;20018;-68
2023/06/11 07:56:38;;;;;;;7.32;6.38;;;24.10;99.90;;;;;;4998381;28;20101;-67
2023/06/11 07:59:03;;;;;;;8.98;5.80;;;24.60;99.90;;;;;;4998327;28;20026;-67
2023/06/11 08:01:29;;;;;;;6.68;5.72;;;24.40;99.90;;;;;;4997354;28;20037;-67
2023/06/11 08:03:56;;;;;;;7.28;5.72;;;24.40;99.90;;;;;;4997612;28;20022;-67
2023/06/11 08:06:22;;;;;;;7.93;5.95;;;24.60;99.90;;;;;;4997336;28;20042;-67
2023/06/11 08:08:47;;;;;;;6.75;5.28;;;24.60;99.90;;;;;;4997636;28;20109;-67
2023/06/11 08:11:14;;;;;;;6.97;5.95;;;24.60;99.90;;;;;;4997352;28;20054;-67
2023/06/11 08:13:40;;;;;;;6.50;5.43;;;24.50;99.90;;;;;;4997222;28;20065;-67
2023/06/11 08:16:07;;;;;;;6.72;6.00;;;24.70;99.90;;;;;;4998207;28;20085;-67
2023/06/11 08:18:33;;;;;;;6.47;5.75;;;24.60;99.90;;;;;;4998295;28;20058;-67
2023/06/11 08:20:58;;;;;;;10.82;6.28;;;24.60;99.90;;;;;;4997128;28;20030;-67
2023/06/11 08:23:24;;;;;;;8.23;5.50;;;24.80;99.90;;;;;;4997803;28;20026;-67
2023/06/11 08:25:50;;;;;;;9.60;5.68;;;24.80;99.90;;;;;;4996868;28;20030;-67
2023/06/11 08:28:16;;;;;;;16.08;5.90;;;24.90;99.90;;;;;;4998514;28;20023;-67
2023/06/11 08:30:46;;;;;;;5.72;5.13;;;24.90;99.90;;;;;;4996987;28;20026;-68
2023/06/11 08:33:12;;;;;;;7.18;5.10;;;25.30;99.90;;;;;;4998025;28;20033;-68
2023/06/11 08:35:37;;;;;;;5.85;4.85;;;25.50;99.90;;;;;;4996738;28;20030;-68
2023/06/11 08:38:03;;;;;;;7.40;5.43;;;25.50;99.90;;;;;;4996648;28;20022;-69
2023/06/11 08:40:29;;;;;;;8.73;5.03;;;25.50;99.90;;;;;;4996866;28;20024;-69
2023/06/11 08:42:55;;;;;;;7.28;5.05;;;25.60;99.90;;;;;;4996497;28;20094;-69
2023/06/11 08:45:20;;;;;;;9.00;5.28;;;25.70;99.90;;;;;;4996726;28;20050;-72
2023/06/11 08:47:52;;;;;;;9.73;5.63;;;25.70;99.90;;;;;;4996975;28;20033;-69
2023/06/11 08:50:21;;;;;;;9.60;5.15;;;25.80;99.90;;;;;;4997405;28;20030;-69
2023/06/11 08:52:51;;;;;;;6.40;5.25;;;25.80;99.90;;;;;;4997602;28;20037;-69
2023/06/11 08:55:17;;;;;;;7.23;5.10;;;25.70;99.90;;;;;;4997049;28;20026;-69
2023/06/11 08:57:43;;;;;;;8.35;5.70;;;25.90;99.90;;;;;;4996923;28;20027;-69
2023/06/11 09:00:09;;;;;;;6.53;5.28;;;26.10;99.90;;;;;;4997084;28;20018;-69
2023/06/11 09:02:36;;;;;;;7.32;5.10;;;26.00;99.90;;;;;;4997839;28;20102;-70
2023/06/11 09:05:17;;;;;;;7.88;5.35;;;26.00;99.90;;;;;;4997111;28;20026;-70
2023/06/11 09:07:52;;;;;;;8.45;5.97;;;26.00;99.90;;;;;;4996944;28;20089;-69
2023/06/11 09:10:18;;;;;;;6.93;5.13;;;26.00;99.90;;;;;;4997534;28;20030;-69
2023/06/11 09:12:45;;;;;;;8.60;5.05;;;26.00;99.90;;;;;;4997311;28;20026;-68
2023/06/11 09:15:12;;;;;;;13.02;5.30;;;26.40;99.90;;;;;;4997043;28;20041;-69
2023/06/11 09:17:40;;;;;;;8.13;5.30;;;26.80;99.90;;;;;;4996584;28;20117;-69
2023/06/11 09:20:08;;;;;;;10.23;5.05;;;26.60;99.90;;;;;;4996777;28;20023;-70
2023/06/11 09:22:36;;;;;;;7.60;5.28;;;26.60;99.90;;;;;;4996974;28;20026;-69
2023/06/11 09:25:03;;;;;;;7.55;5.20;;;26.80;99.90;;;;;;4996256;28;20116;-68
2023/06/11 09:27:29;;;;;;;11.63;5.55;;;26.80;99.90;;;;;;4996527;28;20029;-69
2023/06/11 09:29:54;;;;;;;7.05;4.80;;;26.80;99.90;;;;;;4996671;28;20022;-68
2023/06/11 09:32:20;;;;;;;7.32;5.65;;;27.10;99.90;;;;;;4997184;28;20026;-68
2023/06/11 09:34:46;;;;;;;12.18;5.90;;;27.40;99.90;;;;;;4996864;28;20026;-68
2023/06/11 09:37:11;;;;;;;9.75;5.45;;;27.70;99.90;;;;;;4996420;28;20119;-68
2023/06/11 09:39:41;;;;;;;6.28;5.28;;;27.80;99.90;;;;;;4997294;28;20022;-67
2023/06/11 09:42:12;;;;;;;11.52;6.20;;;27.90;99.90;;;;;;4996175;28;20023;-66
2023/06/11 09:44:38;;;;;;;9.95;5.38;;;28.10;99.90;;;;;;4997120;28;20026;-66
2023/06/11 09:47:04;;;;;;;8.50;6.03;;;27.90;99.90;;;;;;4996408;28;20037;-66
2023/06/11 09:49:30;;;;;;;9.02;5.35;;;27.80;99.90;;;;;;4997053;28;20026;-66
2023/06/11 09:51:57;;;;;;;9.15;5.32;;;27.60;99.90;;;;;;4996178;28;20030;-66
2023/06/11 09:54:24;;;;;;;7.30;5.30;;;27.90;99.80;;;;;;4999742;28;20041;-66
2023/06/11 09:56:50;;;;;;;8.55;5.03;;;27.90;99.90;;;;;;4999630;28;20068;-68
2023/06/11 09:59:17;;;;;;;8.55;4.55;;;27.70;96.30;;;;;;4999793;28;20029;-70
2023/06/11 10:01:47;;;;;;;5.90;4.60;;;27.60;94.40;;;;;;5000367;28;20030;-69
2023/06/11 10:04:12;;;;;;;6.63;4.53;;;27.60;95.30;;;;;;5000307;28;20080;-69
2023/06/11 10:06:44;;;;;;;6.80;4.45;;;27.70;95.50;;;;;;5000139;28;20022;-69
2023/06/11 10:09:13;;;;;;;12.13;5.20;;;27.80;93.70;;;;;;5000655;28;20019;-70
2023/06/11 10:11:40;;;;;;;6.45;4.65;;;27.80;93.80;;;;;;4999808;28;20073;-70
2023/06/11 10:14:11;;;;;;;6.72;4.45;;;28.00;92.80;;;;;;4999284;28;20023;-70
2023/06/11 10:16:37;;;;;;;8.48;4.32;;;28.20;92.10;;;;;;4999421;28;20027;-70
2023/06/11 10:19:11;;;;;;;8.68;4.80;;;28.10;92.40;;;;;;5000178;28;20089;-69
2023/06/11 10:21:49;;;;;;;8.13;4.40;;;28.30;91.70;;;;;;5000050;28;20109;-69
2023/06/11 10:24:22;;;;;;;8.93;5.18;;;28.10;90.40;;;;;;5000031;28;20117;-69
2023/06/11 10:27:03;;;;;;;5.53;4.50;;;28.00;90.30;;;;;;4999097;28;20121;-70
2023/06/11 10:29:35;;;;;;;8.75;4.70;;;28.10;90.40;;;;;;4998787;28;20018;-69
2023/06/11 10:32:01;;;;;;;10.32;5.13;;;28.50;88.60;;;;;;4999205;28;20026;-70
2023/06/11 10:34:26;;;;;;;6.93;4.47;;;28.60;89.60;;;;;;4999022;28;20107;-70
2023/06/11 10:36:52;;;;;;;6.00;4.30;;;29.00;87.30;;;;;;4998943;28;20026;-70
2023/06/11 10:39:22;;;;;;;6.00;4.38;;;29.40;85.60;;;;;;4998836;28;20026;-70
2023/06/11 10:42:01;;;;;;;8.55;4.20;;;29.60;83.90;;;;;;4999090;28;20023;-70
2023/06/11 10:44:29;;;;;;;6.90;4.40;;;29.90;84.80;;;;;;4998999;28;20026;-70
2023/06/11 10:46:59;;;;;;;7.28;4.68;;;29.90;83.40;;;;;;4998773;28;20019;-70
2023/06/11 10:49:28;;;;;;;8.70;4.85;;;30.00;85.50;;;;;;4998779;28;20045;-70
2023/06/11 10:51:54;;;;;;;9.35;5.35;;;30.00;80.70;;;;;;4998650;28;20018;-70
2023/06/11 10:54:27;;;;;;;6.25;4.57;;;29.70;80.30;;;;;;4999461;28;20019;-71
2023/06/11 10:56:53;;;;;;;5.78;4.60;;;29.50;81.20;;;;;;4998765;28;20062;-71
2023/06/11 10:59:20;;;;;;;7.82;4.78;;;29.50;80.90;;;;;;4998704;28;20073;-71
2023/06/11 11:01:46;;;;;;;7.65;4.65;;;29.90;80.10;;;;;;4998510;28;20037;-71
2023/06/11 11:04:12;;;;;;;10.70;5.65;;;29.90;80.80;;;;;;4998611;28;20026;-71
2023/06/11 11:06:39;;;;;;;5.60;4.65;;;29.60;79.20;;;;;;4998529;28;20023;-71
2023/06/11 11:09:05;;;;;;;8.52;4.60;;;29.30;81.80;;;;;;4999336;28;20110;-71
2023/06/11 11:11:32;;;;;;;9.55;4.80;;;29.60;81.90;;;;;;4999038;28;20094;-71
2023/06/11 11:13:59;;;;;;;8.40;4.53;;;30.00;78.80;;;;;;4999535;28;20038;-71
2023/06/11 11:16:25;;;;;;;8.48;4.53;;;29.70;77.50;;;;;;4998253;28;20026;-71
2023/06/11 11:18:51;;;;;;;6.60;4.57;;;29.90;79.50;;;;;;4998944;28;20117;-71
2023/06/11 11:21:18;;;;;;;7.13;4.75;;;30.10;79.10;;;;;;4998368;28;20080;-71
2023/06/11 11:23:48;;;;;;;10.63;5.30;;;30.20;76.50;;;;;;4998747;28;20034;-71
2023/06/11 11:26:16;;;;;;;11.70;5.35;;;30.60;78.70;;;;;;4998548;28;20032;-70
2023/06/11 11:28:42;;;;;;;10.18;4.65;;;30.90;78.70;;;;;;4998870;28;20033;-70
2023/06/11 11:31:10;;;;;;;8.30;4.72;;;30.70;76.80;;;;;;4998941;28;20026;-70
2023/06/11 11:33:36;;;;;;;6.55;5.45;;;30.80;78.00;;;;;;4997831;28;20026;-70
2023/06/11 11:36:03;;;;;;;8.18;4.88;;;30.80;76.80;;;;;;4997932;28;20036;-70
2023/06/11 11:38:36;;;;;;;8.48;4.72;;;30.60;76.70;;;;;;4998501;28;20030;-70
2023/06/11 11:41:02;;;;;;;6.68;5.10;;;30.60;77.70;;;;;;4998655;28;20027;-70
2023/06/11 11:43:40;;;;;;;8.80;4.97;;;30.40;77.00;;;;;;4998114;28;20023;-71
2023/06/11 11:46:23;;;;;;;6.65;4.88;;;30.30;78.00;;;;;;4997779;28;20030;-71
2023/06/11 11:48:53;;;;;;;10.25;5.45;;;30.40;77.90;;;;;;4997673;28;20094;-71
2023/06/11 11:51:20;;;;;;;7.38;5.18;;;30.90;75.50;;;;;;4999059;28;20038;-71
2023/06/11 11:53:46;;;;;;;9.32;4.97;;;31.50;74.90;;;;;;4998348;28;20053;-71
2023/06/11 11:56:12;;;;;;;7.40;5.45;;;31.90;73.30;;;;;;4998320;28;20026;-71
2023/06/11 11:58:41;;;;;;;4.88;4.47;;;31.70;72.00;;;;;;4997724;28;20022;-71
2023/06/11 12:01:15;;;;;;;8.20;5.22;;;31.60;71.80;;;;;;4997335;28;20030;-71
2023/06/11 12:03:41;;;;;;;9.32;5.00;;;31.60;72.40;;;;;;4998514;28;20026;-71
2023/06/11 12:06:08;;;;;;;7.57;4.75;;;31.30;71.20;;;;;;4997596;28;20093;-71
2023/06/11 12:08:35;;;;;;;8.88;4.72;;;31.10;72.60;;;;;;4997291;28;20034;-71
2023/06/11 12:11:01;;;;;;;7.93;4.97;;;31.10;73.10;;;;;;4997568;28;20080;-71
2023/06/11 12:13:27;;;;;;;7.80;4.70;;;30.80;73.00;;;;;;4997119;28;20037;-71
2023/06/11 12:15:53;;;;;;;6.53;4.63;;;30.40;73.90;;;;;;4997384;28;20038;-71
2023/06/11 12:18:19;;;;;;;6.38;4.90;;;30.20;73.50;;;;;;4997630;28;20058;-71
2023/06/11 12:20:45;;;;;;;5.05;4.55;;;30.20;74.70;;;;;;4997258;28;20051;-71
2023/06/11 12:23:10;;;;;;;7.45;5.25;;;30.70;74.10;;;;;;4997115;28;20034;-71
2023/06/11 12:25:36;;;;;;;5.82;4.68;;;30.60;73.20;;;;;;4996826;28;20037;-71
2023/06/11 12:28:02;;;;;;;7.18;5.15;;;30.40;72.90;;;;;;4997391;28;20029;-71
2023/06/11 12:30:32;;;;;;;6.20;5.10;;;30.60;74.10;;;;;;4997179;28;20037;-71
2023/06/11 12:32:58;;;;;;;7.70;5.45;;;30.70;73.50;;;;;;4997310;28;20026;-71
2023/06/11 12:35:24;;;;;;;8.10;5.72;;;30.60;72.40;;;;;;4997578;28;20034;-71
2023/06/11 12:37:50;;;;;;;5.28;4.65;;;30.70;72.70;;;;;;4997173;28;20048;-71
2023/06/11 12:40:16;;;;;;;11.68;4.70;;;30.60;74.40;;;;;;4997112;28;20033;-71